createdAt,value
2022-08-23T00:02:01.413Z,98228.97
2022-08-23T00:04:37.923Z,98222.41
2022-08-23T00:07:08.194Z,98227.91
2022-08-23T00:09:36.062Z,98225.41
2022-08-23T00:12:19.404Z,98225.16
2022-08-23T00:14:52.143Z,98228.94
2022-08-23T00:17:30.975Z,98233.34
2022-08-23T00:20:11.094Z,98234.44
2022-08-23T00:22:40.079Z,98231.13
2022-08-23T00:25:10.429Z,98230.94
2022-08-23T00:27:38.374Z,98232.41
2022-08-23T00:30:08.335Z,98234.78
2022-08-23T00:32:37.221Z,98226.50
2022-08-23T00:35:05.731Z,98232.28
2022-08-23T00:37:33.879Z,98231.94
2022-08-23T00:40:02.033Z,98226.56
2022-08-23T00:42:59.599Z,98229.91
2022-08-23T00:46:02.954Z,98226.25
2022-08-23T00:48:34.922Z,98230.25
2022-08-23T00:51:29.335Z,98226.75
2022-08-23T00:54:01.631Z,98230.75
2022-08-23T00:56:34.655Z,98228.63
2022-08-23T00:59:02.077Z,98221.31
2022-08-23T01:01:29.192Z,98221.16
2022-08-23T01:04:04.167Z,98224.81
2022-08-23T01:06:52.162Z,98222.59
2022-08-23T01:09:22.115Z,98226.94
2022-08-23T01:11:54.468Z,98220.50
2022-08-23T01:14:47.839Z,98234.09
2022-08-23T01:17:27.280Z,98224.44
2022-08-23T01:20:15.582Z,98224.31
2022-08-23T01:23:00.034Z,98224.47
2022-08-23T01:25:31.196Z,98237.56
2022-08-23T01:27:59.665Z,98231.22
2022-08-23T01:30:32.595Z,98237.94
2022-08-23T01:33:05.557Z,98236.16
2022-08-23T01:35:45.281Z,98236.44
2022-08-23T01:38:13.328Z,98231.25
2022-08-23T01:40:42.751Z,98236.00
2022-08-23T01:43:11.523Z,98242.16
2022-08-23T01:45:39.734Z,98245.88
2022-08-23T01:48:08.617Z,98241.63
2022-08-23T01:53:08.682Z,98239.34
2022-08-23T01:55:37.142Z,98240.31
2022-08-23T01:58:05.740Z,98238.63
2022-08-23T02:00:38.378Z,98235.00
2022-08-23T02:03:08.182Z,98240.09
2022-08-23T02:05:37.242Z,98237.09
2022-08-23T02:08:26.402Z,98248.56
2022-08-23T02:10:55.687Z,98251.16
2022-08-23T02:13:24.685Z,98250.72
2022-08-23T02:15:52.466Z,98248.25
2022-08-23T02:18:21.462Z,98244.47
2022-08-23T02:20:51.977Z,98249.69
2022-08-23T02:23:21.121Z,98240.34
2022-08-23T02:25:48.610Z,98252.44
2022-08-23T02:28:15.976Z,98242.84
2022-08-23T02:30:46.022Z,98238.28
2022-08-23T02:33:14.235Z,98241.53
2022-08-23T02:35:43.537Z,98243.72
2022-08-23T02:38:12.855Z,98242.03
2022-08-23T02:40:40.748Z,98243.25
2022-08-23T02:43:08.629Z,98241.97
2022-08-23T02:45:37.414Z,98254.03
2022-08-23T02:48:05.475Z,98255.31
2022-08-23T02:50:41.493Z,98264.69
2022-08-23T02:53:09.386Z,98267.31
2022-08-23T02:55:36.449Z,98269.59
2022-08-23T02:58:05.535Z,98263.19
2022-08-23T03:00:33.080Z,98261.84
2022-08-23T03:03:00.119Z,98269.81
2022-08-23T03:05:27.503Z,98267.50
2022-08-23T03:07:54.736Z,98273.94
2022-08-23T03:10:22.331Z,98278.72
2022-08-23T03:12:55.401Z,98276.94
2022-08-23T03:15:22.725Z,98276.94
2022-08-23T03:17:49.919Z,98279.84
2022-08-23T03:20:17.099Z,98284.16
2022-08-23T03:22:47.712Z,98280.09
2022-08-23T03:25:21.709Z,98286.44
2022-08-23T03:28:08.435Z,98284.63
2022-08-23T03:30:39.646Z,98288.38
2022-08-23T03:33:07.861Z,98287.41
2022-08-23T03:35:35.091Z,98289.81
2022-08-23T03:38:03.601Z,98284.75
2022-08-23T03:40:30.826Z,98278.91
2022-08-23T03:42:57.865Z,98285.88
2022-08-23T03:45:26.214Z,98289.50
2022-08-23T03:47:53.429Z,98288.53
2022-08-23T03:50:21.103Z,98283.91
2022-08-23T03:52:48.638Z,98297.06
2022-08-23T03:55:16.190Z,98291.47
2022-08-23T03:57:45.849Z,98302.63
2022-08-23T04:00:15.479Z,98299.69
2022-08-23T04:02:48.921Z,98299.69
2022-08-23T04:05:16.402Z,98302.59
2022-08-23T04:08:09.438Z,98298.28
2022-08-23T04:10:39.205Z,98302.47
2022-08-23T04:13:09.038Z,98307.25
2022-08-23T04:15:36.975Z,98307.25
2022-08-23T04:18:06.313Z,98312.50
2022-08-23T04:20:36.945Z,98314.44
2022-08-23T04:23:05.859Z,98318.88
2022-08-23T04:25:44.713Z,98317.75
2022-08-23T04:28:12.328Z,98319.38
2022-08-23T04:30:39.425Z,98323.13
2022-08-23T04:33:10.202Z,98328.19
2022-08-23T04:35:41.382Z,98338.44
2022-08-23T04:38:24.444Z,98340.53
2022-08-23T04:41:14.223Z,98340.94
2022-08-23T04:43:44.035Z,98346.03
2022-08-23T04:46:17.573Z,98342.31
2022-08-23T04:48:47.907Z,98343.84
2022-08-23T04:51:17.026Z,98344.25
2022-08-23T04:53:44.499Z,98345.81
2022-08-23T04:56:30.727Z,98350.69
2022-08-23T04:58:57.939Z,98345.81
2022-08-23T05:01:25.993Z,98356.00
2022-08-23T05:03:55.365Z,98362.38
2022-08-23T05:06:25.180Z,98358.94
2022-08-23T05:08:53.501Z,98363.44
2022-08-23T05:11:21.189Z,98359.75
2022-08-23T05:13:49.997Z,98355.28
2022-08-23T05:16:17.873Z,98353.03
2022-08-23T05:18:53.853Z,98348.91
2022-08-23T05:21:24.054Z,98348.03
2022-08-23T05:23:54.678Z,98345.09
2022-08-23T05:26:23.993Z,98340.09
2022-08-23T05:28:51.145Z,98346.31
2022-08-23T05:31:24.749Z,98341.72
2022-08-23T05:33:58.985Z,98347.84
2022-08-23T05:37:01.428Z,98346.78
2022-08-23T05:39:36.718Z,98343.34
2022-08-23T05:42:13.883Z,98353.97
2022-08-23T05:44:42.476Z,98344.47
2022-08-23T05:47:15.112Z,98341.44
2022-08-23T05:50:18.456Z,98336.44
2022-08-23T05:52:50.365Z,98335.84
2022-08-23T05:55:18.583Z,98340.41
2022-08-23T05:57:55.908Z,98345.81
2022-08-23T06:00:37.875Z,98354.44
2022-08-23T06:03:08.694Z,98356.22
2022-08-23T06:05:40.808Z,98359.72
2022-08-23T06:08:08.668Z,98359.31
2022-08-23T06:10:42.040Z,98364.31
2022-08-23T06:13:26.931Z,98358.91
2022-08-23T06:15:54.722Z,98357.03
2022-08-23T06:18:22.377Z,98355.34
2022-08-23T06:21:03.785Z,98363.63
2022-08-23T06:23:41.632Z,98364.06
2022-08-23T06:26:15.044Z,98357.41
2022-08-23T06:28:51.035Z,98360.47
2022-08-23T06:31:41.415Z,98359.28
2022-08-23T06:34:39.037Z,98363.59
2022-08-23T06:37:42.813Z,98353.53
2022-08-23T06:40:41.515Z,98361.25
2022-08-23T06:43:27.632Z,98350.91
2022-08-23T06:46:29.499Z,98360.94
2022-08-23T06:49:00.846Z,98354.69
2022-08-23T06:51:33.507Z,98365.56
2022-08-23T06:54:20.947Z,98358.41
2022-08-23T06:57:06.582Z,98361.41
2022-08-23T06:59:49.894Z,98366.94
2022-08-23T07:02:52.139Z,98364.38
2022-08-23T07:05:42.950Z,98366.38
2022-08-23T07:08:18.845Z,98363.66
2022-08-23T07:10:45.831Z,98361.97
2022-08-23T07:13:16.922Z,98368.41
2022-08-23T07:15:45.644Z,98373.22
2022-08-23T07:18:18.437Z,98371.38
2022-08-23T07:20:45.409Z,98374.03
2022-08-23T07:23:12.417Z,98367.59
2022-08-23T07:25:42.419Z,98372.38
2022-08-23T07:28:14.076Z,98379.47
2022-08-23T07:30:45.268Z,98372.25
2022-08-23T07:33:13.759Z,98373.13
2022-08-23T07:35:59.148Z,98365.81
2022-08-23T07:38:29.929Z,98368.28
2022-08-23T07:40:59.044Z,98374.28
2022-08-23T07:43:26.221Z,98378.22
2022-08-23T07:45:53.835Z,98376.88
2022-08-23T07:48:43.355Z,98372.19
2022-08-23T07:51:14.719Z,98365.63
2022-08-23T07:53:45.904Z,98369.28
2022-08-23T07:56:16.499Z,98368.00
2022-08-23T07:58:56.811Z,98370.56
2022-08-23T08:01:44.195Z,98370.94
2022-08-23T08:04:12.706Z,98374.44
2022-08-23T08:06:59.866Z,98372.59
2022-08-23T08:09:37.846Z,98383.22
2022-08-23T08:12:05.744Z,98376.13
2022-08-23T08:14:33.861Z,98376.75
2022-08-23T08:17:03.728Z,98371.69
2022-08-23T08:20:06.682Z,98372.31
2022-08-23T08:22:58.549Z,98385.41
2022-08-23T08:25:27.191Z,98376.00
2022-08-23T08:27:55.107Z,98378.03
2022-08-23T08:30:22.167Z,98382.75
2022-08-23T08:32:49.752Z,98390.44
2022-08-23T08:35:16.902Z,98390.34
2022-08-23T08:37:44.055Z,98388.34
2022-08-23T08:40:12.038Z,98381.31
2022-08-23T08:43:05.695Z,98384.91
2022-08-23T08:45:58.707Z,98391.78
2022-08-23T08:48:30.541Z,98392.84
2022-08-23T08:51:11.745Z,98389.78
2022-08-23T08:53:45.288Z,98393.97
2022-08-23T08:56:32.103Z,98386.56
2022-08-23T08:59:29.401Z,98384.28
2022-08-23T09:01:58.628Z,98390.06
2022-08-23T09:04:37.192Z,98379.63
2022-08-23T09:07:21.203Z,98381.56
2022-08-23T09:10:09.837Z,98381.94
2022-08-23T09:13:21.944Z,98387.94
2022-08-23T09:16:08.515Z,98386.75
2022-08-23T09:18:37.088Z,98383.97
2022-08-23T09:21:08.262Z,98379.75
2022-08-23T09:24:00.614Z,98369.81
2022-08-23T09:26:40.716Z,98375.13
2022-08-23T09:29:20.773Z,98380.03
2022-08-23T09:32:05.977Z,98387.97
2022-08-23T09:34:36.223Z,98384.41
2022-08-23T09:37:27.202Z,98384.41
2022-08-23T09:40:38.971Z,98385.72
2022-08-23T09:43:16.708Z,98383.59
2022-08-23T09:45:50.223Z,98375.13
2022-08-23T09:48:34.467Z,98373.41
2022-08-23T09:51:22.427Z,98377.25
2022-08-23T09:53:55.217Z,98371.91
2022-08-23T09:56:26.967Z,98372.63
2022-08-23T09:58:54.822Z,98363.19
2022-08-23T10:01:39.520Z,98357.44
2022-08-23T10:04:17.502Z,98362.00
2022-08-23T10:06:46.283Z,98358.47
2022-08-23T10:09:30.817Z,98359.25
2022-08-23T10:12:01.633Z,98365.91
2022-08-23T10:14:33.026Z,98364.44
2022-08-23T10:17:14.056Z,98361.59
2022-08-23T10:19:59.071Z,98360.91
2022-08-23T10:22:29.120Z,98371.44
2022-08-23T10:25:59.890Z,98361.78
2022-08-23T10:29:03.903Z,98357.00
2022-08-23T10:32:00.689Z,98349.13
2022-08-23T10:35:07.509Z,98344.81
2022-08-23T10:37:59.541Z,98356.28
2022-08-23T10:40:45.251Z,98345.28
2022-08-23T10:43:34.534Z,98341.19
2022-08-23T10:46:02.928Z,98339.00
2022-08-23T10:48:43.897Z,98337.44
2022-08-23T10:51:31.804Z,98329.56
2022-08-23T10:54:09.405Z,98330.72
2022-08-23T10:56:43.022Z,98326.91
2022-08-23T10:59:23.942Z,98317.88
2022-08-23T11:02:20.027Z,98316.91
2022-08-23T11:05:17.640Z,98311.28
2022-08-23T11:08:09.739Z,98319.13
2022-08-23T11:10:55.764Z,98324.78
2022-08-23T11:13:29.939Z,98324.31
2022-08-23T11:16:05.328Z,98327.38
2022-08-23T11:18:47.621Z,98306.22
2022-08-23T11:21:28.444Z,98309.47
2022-08-23T11:23:59.388Z,98309.44
2022-08-23T11:26:36.312Z,98303.84
2022-08-23T11:29:06.367Z,98309.00
2022-08-23T11:31:44.804Z,98311.56
2022-08-23T11:34:29.497Z,98304.81
2022-08-23T11:37:19.762Z,98310.56
2022-08-23T11:39:57.922Z,98298.56
2022-08-23T11:42:52.207Z,98288.59
2022-08-23T11:45:46.493Z,98296.56
2022-08-23T11:48:25.065Z,98290.84
2022-08-23T11:50:57.817Z,98289.81
2022-08-23T11:53:50.252Z,98299.59
2022-08-23T11:57:10.589Z,98289.88
2022-08-23T11:59:54.963Z,98290.25
2022-08-23T12:02:47.517Z,98285.06
2022-08-23T12:05:23.501Z,98281.56
2022-08-23T12:08:31.102Z,98274.41
2022-08-23T12:11:05.223Z,98281.00
2022-08-23T12:13:51.417Z,98272.25
2022-08-23T12:16:21.352Z,98274.31
2022-08-23T12:18:53.579Z,98270.28
2022-08-23T12:21:51.412Z,98273.03
2022-08-23T12:24:35.597Z,98279.72
2022-08-23T12:27:26.025Z,98270.06
2022-08-23T12:33:22.813Z,98268.88
2022-08-23T12:36:20.510Z,98264.09
2022-08-23T12:39:15.791Z,98264.91
2022-08-23T12:42:13.763Z,98265.13
2022-08-23T12:44:41.481Z,98256.94
2022-08-23T12:47:21.085Z,98266.22
2022-08-23T12:50:21.655Z,98269.06
2022-08-23T12:53:09.150Z,98266.63
2022-08-23T12:55:47.550Z,98259.97
2022-08-23T12:58:17.309Z,98277.66
2022-08-23T13:00:58.325Z,98268.84
2022-08-23T13:03:29.242Z,98276.94
2022-08-23T13:06:06.386Z,98268.31
2022-08-23T13:08:40.797Z,98271.53
2022-08-23T13:11:09.886Z,98268.84
2022-08-23T13:13:44.448Z,98266.16
2022-08-23T13:16:42.003Z,98261.69
2022-08-23T13:19:33.703Z,98267.63
2022-08-23T13:22:22.251Z,98258.13
2022-08-23T13:27:58.136Z,98254.94
2022-08-23T13:30:38.740Z,98250.53
2022-08-23T13:33:08.898Z,98257.38
2022-08-23T13:35:47.134Z,98247.22
2022-08-23T13:38:20.498Z,98249.72
2022-08-23T13:41:03.765Z,98250.81
2022-08-23T13:43:40.323Z,98247.16
2022-08-23T13:46:22.976Z,98241.06
2022-08-23T13:49:01.540Z,98250.41
2022-08-23T13:51:39.345Z,98254.91
2022-08-23T13:54:13.126Z,98251.59
2022-08-23T13:57:03.400Z,98246.66
2022-08-23T13:59:40.242Z,98245.47
2022-08-23T14:02:14.202Z,98249.63
2022-08-23T14:04:42.456Z,98253.38
2022-08-23T14:07:10.559Z,98241.41
2022-08-23T14:09:39.174Z,98247.22
2022-08-23T14:12:15.567Z,98247.94
2022-08-23T14:14:43.550Z,98248.38
2022-08-23T14:17:15.738Z,98242.34
2022-08-23T14:22:35.075Z,98235.44
2022-08-23T14:25:02.188Z,98239.84
2022-08-23T14:27:29.281Z,98238.22
2022-08-23T14:29:56.415Z,98235.91
2022-08-23T14:32:23.661Z,98244.09
2022-08-23T14:34:52.697Z,98241.66
2022-08-23T14:38:00.527Z,98239.72
2022-08-23T14:40:09.289Z,98235.94
2022-08-23T14:42:36.597Z,98237.56
2022-08-23T14:45:04.740Z,98242.97
2022-08-23T14:47:31.824Z,98236.00
2022-08-23T14:49:58.788Z,98239.03
2022-08-23T14:52:25.815Z,98242.72
2022-08-23T14:54:53.002Z,98245.44
2022-08-23T14:57:20.040Z,98239.19
2022-08-23T14:59:47.123Z,98239.00
2022-08-23T15:02:21.232Z,98228.94
2022-08-23T15:04:48.222Z,98238.16
2022-08-23T15:07:18.253Z,98238.91
2022-08-23T15:09:51.249Z,98243.66
2022-08-23T15:15:22.139Z,98242.78
2022-08-23T15:17:56.660Z,98245.75
2022-08-23T15:20:29.656Z,98237.72
2022-08-23T15:22:56.813Z,98234.88
2022-08-23T15:25:29.056Z,98236.00
2022-08-23T15:27:56.600Z,98236.91
2022-08-23T15:30:24.853Z,98238.09
2022-08-23T15:32:56.524Z,98226.31
2022-08-23T15:35:25.831Z,98233.03
2022-08-23T15:37:54.874Z,98230.56
2022-08-23T15:40:23.417Z,98233.34
2022-08-23T15:42:50.466Z,98233.88
2022-08-23T15:45:18.208Z,98234.81
2022-08-23T15:47:55.078Z,98235.84
2022-08-23T15:50:26.522Z,98232.47
2022-08-23T15:52:54.151Z,98235.19
2022-08-23T15:55:21.387Z,98238.50
2022-08-23T15:57:52.580Z,98235.53
2022-08-23T16:00:22.689Z,98232.88
2022-08-23T16:03:18.976Z,98228.84
2022-08-23T16:05:41.108Z,98235.75
2022-08-23T16:08:09.843Z,98231.09
2022-08-23T16:10:38.906Z,98237.34
2022-08-23T16:13:05.917Z,98240.84
2022-08-23T16:15:32.866Z,98233.25
2022-08-23T16:17:59.913Z,98230.78
2022-08-23T16:20:26.992Z,98233.50
2022-08-23T16:22:53.989Z,98234.09
2022-08-23T16:25:20.990Z,98233.50
2022-08-23T16:27:48.037Z,98233.97
2022-08-23T16:30:15.323Z,98230.31
2022-08-23T16:32:42.422Z,98233.97
2022-08-23T16:35:10.394Z,98232.66
2022-08-23T16:37:37.532Z,98235.03
2022-08-23T16:40:07.832Z,98232.31
2022-08-23T16:42:34.988Z,98241.41
2022-08-23T16:45:02.748Z,98237.25
2022-08-23T16:47:34.066Z,98238.56
2022-08-23T16:50:01.051Z,98243.41
2022-08-23T16:52:34.789Z,98241.84
2022-08-23T16:55:09.291Z,98243.22
2022-08-23T16:57:36.298Z,98240.53
2022-08-23T17:00:07.797Z,98241.81
2022-08-23T17:02:37.584Z,98247.34
2022-08-23T17:05:08.478Z,98243.72
2022-08-23T17:07:35.741Z,98251.38
2022-08-23T17:10:04.743Z,98250.78
2022-08-23T17:12:34.090Z,98246.31
2022-08-23T17:15:01.121Z,98248.06
2022-08-23T17:17:28.210Z,98243.00
2022-08-23T17:19:55.173Z,98247.38
2022-08-23T17:22:22.157Z,98259.06
2022-08-23T17:24:49.336Z,98252.09
2022-08-23T17:27:20.421Z,98256.16
2022-08-23T17:29:47.544Z,98259.25
2022-08-23T17:32:14.541Z,98258.03
2022-08-23T17:34:41.919Z,98267.56
2022-08-23T17:37:20.262Z,98267.09
2022-08-23T17:39:51.050Z,98267.41
2022-08-23T17:42:21.337Z,98268.22
2022-08-23T17:44:48.808Z,98270.06
2022-08-23T17:47:18.020Z,98279.97
2022-08-23T17:49:47.741Z,98277.56
2022-08-23T17:52:15.841Z,98282.50
2022-08-23T17:54:43.562Z,98280.69
2022-08-23T17:57:11.594Z,98285.81
2022-08-23T17:59:39.084Z,98295.28
2022-08-23T18:02:08.088Z,98300.22
2022-08-23T18:04:36.315Z,98303.53
2022-08-23T18:07:04.783Z,98310.34
2022-08-23T18:09:32.327Z,98314.69
2022-08-23T18:12:00.430Z,98313.34
2022-08-23T18:14:28.844Z,98318.66
2022-08-23T18:16:56.705Z,98321.28
2022-08-23T18:19:24.609Z,98317.41
2022-08-23T18:21:52.255Z,98322.22
2022-08-23T18:24:20.565Z,98329.69
2022-08-23T18:27:06.903Z,98335.59
2022-08-23T18:29:37.131Z,98341.25
2022-08-23T18:32:08.873Z,98340.16
2022-08-23T18:34:37.923Z,98346.63
2022-08-23T18:37:05.378Z,98344.38
2022-08-23T18:39:32.594Z,98346.03
2022-08-23T18:42:05.612Z,98345.41
2022-08-23T18:44:33.662Z,98347.06
2022-08-23T18:47:02.179Z,98353.94
2022-08-23T18:49:31.085Z,98353.50
2022-08-23T18:51:59.231Z,98353.72
2022-08-23T18:54:29.810Z,98352.66
2022-08-23T18:57:01.072Z,98362.41
2022-08-23T18:59:28.624Z,98363.25
2022-08-23T19:01:56.676Z,98369.06
2022-08-23T19:04:24.385Z,98370.72
2022-08-23T19:06:54.215Z,98371.72
2022-08-23T19:09:22.051Z,98384.19
2022-08-23T19:11:49.302Z,98384.63
2022-08-23T19:14:16.389Z,98388.13
2022-08-23T19:16:47.905Z,98389.75
2022-08-23T19:19:16.532Z,98390.09
2022-08-23T19:21:43.736Z,98401.22
2022-08-23T19:24:10.724Z,98401.03
2022-08-23T19:26:38.192Z,98398.91
2022-08-23T19:29:09.054Z,98397.59
2022-08-23T19:31:42.634Z,98406.06
2022-08-23T19:34:10.659Z,98405.81
2022-08-23T19:36:47.551Z,98409.94
2022-08-23T19:39:18.545Z,98411.66
2022-08-23T19:41:48.353Z,98411.97
2022-08-23T19:44:17.877Z,98410.78
2022-08-23T19:46:45.646Z,98409.06
2022-08-23T19:49:14.505Z,98414.75
2022-08-23T19:51:42.523Z,98421.63
2022-08-23T19:54:12.390Z,98430.66
2022-08-23T19:56:45.826Z,98427.63
2022-08-23T19:59:21.830Z,98431.34
2022-08-23T20:01:50.368Z,98435.50
2022-08-23T20:04:19.269Z,98435.16
2022-08-23T20:06:48.624Z,98444.47
2022-08-23T20:09:16.821Z,98442.00
2022-08-23T20:11:44.070Z,98456.56
2022-08-23T20:14:11.408Z,98455.91
2022-08-23T20:16:40.874Z,98454.41
2022-08-23T20:19:09.862Z,98455.31
2022-08-23T20:21:38.687Z,98451.97
2022-08-23T20:24:07.876Z,98452.03
2022-08-23T20:26:43.729Z,98455.41
2022-08-23T20:29:18.101Z,98462.19
2022-08-23T20:31:56.729Z,98470.19
2022-08-23T20:34:27.023Z,98472.34
2022-08-23T20:36:56.167Z,98466.97
2022-08-23T20:39:24.683Z,98468.00
2022-08-23T20:41:53.034Z,98467.09
2022-08-23T20:44:22.388Z,98457.78
2022-08-23T20:46:53.940Z,98465.63
2022-08-23T20:49:22.877Z,98471.03
2022-08-23T20:51:50.417Z,98466.50
2022-08-23T20:54:18.239Z,98462.97
2022-08-23T20:56:45.716Z,98457.81
2022-08-23T20:59:15.553Z,98465.31
2022-08-23T21:01:42.581Z,98464.97
2022-08-23T21:04:10.438Z,98462.88
2022-08-23T21:06:45.180Z,98477.22
2022-08-23T21:09:17.084Z,98481.53
2022-08-23T21:11:45.197Z,98473.28
2022-08-23T21:14:15.202Z,98479.44
2022-08-23T21:16:43.342Z,98474.91
2022-08-23T21:19:10.427Z,98472.47
2022-08-23T21:21:39.246Z,98477.31
2022-08-23T21:24:09.189Z,98474.19
2022-08-23T21:26:37.125Z,98475.41
2022-08-23T21:29:07.627Z,98471.88
2022-08-23T21:31:35.571Z,98471.34
2022-08-23T21:34:02.757Z,98472.78
2022-08-23T21:36:30.200Z,98465.06
2022-08-23T21:38:57.361Z,98471.69
2022-08-23T21:41:32.009Z,98471.69
2022-08-23T21:43:59.690Z,98467.66
2022-08-23T21:46:27.184Z,98474.03
2022-08-23T21:48:54.428Z,98480.66
2022-08-23T21:51:21.611Z,98474.78
2022-08-23T21:53:48.695Z,98478.31
2022-08-23T21:56:15.753Z,98480.44
2022-08-23T21:58:44.113Z,98480.59
2022-08-23T22:01:11.765Z,98472.16
2022-08-23T22:03:38.952Z,98469.56
2022-08-23T22:06:13.419Z,98471.84
2022-08-23T22:08:42.449Z,98472.63
2022-08-23T22:11:11.382Z,98471.31
2022-08-23T22:13:39.998Z,98472.44
2022-08-23T22:16:07.546Z,98473.34
2022-08-23T22:18:35.937Z,98473.06
2022-08-23T22:21:04.312Z,98473.41
2022-08-23T22:23:31.797Z,98469.72
2022-08-23T22:26:06.812Z,98466.84
2022-08-23T22:28:36.096Z,98469.09
2022-08-23T22:31:06.330Z,98474.31
2022-08-23T22:33:33.527Z,98471.88
2022-08-23T22:36:10.982Z,98478.59
2022-08-23T22:38:38.960Z,98473.41
2022-08-23T22:41:06.406Z,98470.06
2022-08-23T22:43:33.442Z,98473.59
2022-08-23T22:46:02.753Z,98467.75
2022-08-23T22:48:32.708Z,98478.44
2022-08-23T22:51:37.247Z,98470.56
2022-08-23T22:54:09.248Z,98464.03
2022-08-23T22:56:47.071Z,98467.06
2022-08-23T22:59:16.013Z,98470.72
2022-08-23T23:01:54.894Z,98477.72
2022-08-23T23:04:26.363Z,98471.84
2022-08-23T23:06:55.067Z,98469.13
2022-08-23T23:09:22.352Z,98474.47
2022-08-23T23:11:49.569Z,98472.94
2022-08-23T23:14:19.041Z,98480.44
2022-08-23T23:16:49.087Z,98470.81
2022-08-23T23:19:36.125Z,98476.72
2022-08-23T23:22:04.854Z,98472.97
2022-08-23T23:24:36.234Z,98470.31
2022-08-23T23:27:04.011Z,98485.78
2022-08-23T23:29:32.319Z,98479.44
2022-08-23T23:31:59.674Z,98471.91
2022-08-23T23:34:27.906Z,98473.31
2022-08-23T23:36:59.356Z,98467.75
2022-08-23T23:39:27.657Z,98473.91
2022-08-23T23:41:55.514Z,98476.16
2022-08-23T23:44:29.895Z,98476.25
2022-08-23T23:47:01.209Z,98479.09
2022-08-23T23:49:32.093Z,98483.44
2022-08-23T23:52:00.789Z,98478.38
2022-08-23T23:54:27.797Z,98476.13
2022-08-23T23:56:55.128Z,98473.78
2022-08-23T23:59:22.156Z,98475.00
